sensor_id;sensor_type;location;lat;lon;timestamp;P1;durP1;ratioP1;P2;durP2;ratioP2
43678;SDS011;29279;50.858;4.392;2022-12-05T00:00:53;125.15;;;45.25;;
43678;SDS011;29279;50.858;4.392;2022-12-05T00:03:19;107.68;;;44.03;;
43678;SDS011;29279;50.858;4.392;2022-12-05T00:05:45;122.05;;;46.15;;
43678;SDS011;29279;50.858;4.392;2022-12-05T00:08:10;116.82;;;45.45;;
43678;SDS011;29279;50.858;4.392;2022-12-05T00:10:36;109.68;;;41.97;;
43678;SDS011;29279;50.858;4.392;2022-12-05T00:13:03;114.68;;;43.38;;
43678;SDS011;29279;50.858;4.392;2022-12-05T00:15:29;93.32;;;41.95;;
43678;SDS011;29279;50.858;4.392;2022-12-05T00:17:55;110.45;;;43.38;;
43678;SDS011;29279;50.858;4.392;2022-12-05T00:20:20;101.07;;;41.22;;
43678;SDS011;29279;50.858;4.392;2022-12-05T00:22:46;98.85;;;40.95;;
43678;SDS011;29279;50.858;4.392;2022-12-05T00:25:12;111.68;;;41.72;;
43678;SDS011;29279;50.858;4.392;2022-12-05T00:27:37;103.93;;;42.00;;
43678;SDS011;29279;50.858;4.392;2022-12-05T00:30:03;100.93;;;39.92;;
43678;SDS011;29279;50.858;4.392;2022-12-05T00:32:32;104.38;;;40.50;;
43678;SDS011;29279;50.858;4.392;2022-12-05T00:34:58;101.28;;;39.47;;
43678;SDS011;29279;50.858;4.392;2022-12-05T00:37:23;101.88;;;39.83;;
43678;SDS011;29279;50.858;4.392;2022-12-05T00:39:49;106.93;;;40.03;;
43678;SDS011;29279;50.858;4.392;2022-12-05T00:42:14;117.40;;;41.75;;
43678;SDS011;29279;50.858;4.392;2022-12-05T00:44:40;115.55;;;40.22;;
43678;SDS011;29279;50.858;4.392;2022-12-05T00:47:06;111.38;;;39.80;;
43678;SDS011;29279;50.858;4.392;2022-12-05T00:49:32;103.95;;;39.65;;
43678;SDS011;29279;50.858;4.392;2022-12-05T00:51:57;104.70;;;40.33;;
43678;SDS011;29279;50.858;4.392;2022-12-05T00:54:23;93.35;;;37.80;;
43678;SDS011;29279;50.858;4.392;2022-12-05T00:56:49;93.82;;;37.70;;
43678;SDS011;29279;50.858;4.392;2022-12-05T00:59:17;92.40;;;38.33;;
43678;SDS011;29279;50.858;4.392;2022-12-05T01:01:44;108.40;;;39.45;;
43678;SDS011;29279;50.858;4.392;2022-12-05T01:04:13;95.43;;;37.83;;
43678;SDS011;29279;50.858;4.392;2022-12-05T01:06:43;91.18;;;37.70;;
43678;SDS011;29279;50.858;4.392;2022-12-05T01:09:13;98.88;;;37.33;;
43678;SDS011;29279;50.858;4.392;2022-12-05T01:11:41;96.40;;;36.25;;
43678;SDS011;29279;50.858;4.392;2022-12-05T01:14:11;96.32;;;37.28;;
43678;SDS011;29279;50.858;4.392;2022-12-05T01:16:39;96.32;;;35.92;;
43678;SDS011;29279;50.858;4.392;2022-12-05T01:19:07;116.78;;;39.33;;
43678;SDS011;29279;50.858;4.392;2022-12-05T01:21:38;97.88;;;39.42;;
43678;SDS011;29279;50.858;4.392;2022-12-05T01:24:04;92.45;;;36.72;;
43678;SDS011;29279;50.858;4.392;2022-12-05T01:26:30;97.95;;;37.05;;
43678;SDS011;29279;50.858;4.392;2022-12-05T01:28:56;90.03;;;36.00;;
43678;SDS011;29279;50.858;4.392;2022-12-05T01:31:23;96.25;;;36.63;;
43678;SDS011;29279;50.858;4.392;2022-12-05T01:33:51;99.78;;;37.53;;
43678;SDS011;29279;50.858;4.392;2022-12-05T01:36:18;80.07;;;36.55;;
43678;SDS011;29279;50.858;4.392;2022-12-05T01:38:44;98.22;;;37.28;;
43678;SDS011;29279;50.858;4.392;2022-12-05T01:41:14;87.75;;;35.05;;
43678;SDS011;29279;50.858;4.392;2022-12-05T01:46:47;93.65;;;36.55;;
43678;SDS011;29279;50.858;4.392;2022-12-05T01:51:52;93.68;;;39.10;;
43678;SDS011;29279;50.858;4.392;2022-12-05T01:54:20;112.53;;;38.28;;
43678;SDS011;29279;50.858;4.392;2022-12-05T01:56:53;96.60;;;37.60;;
43678;SDS011;29279;50.858;4.392;2022-12-05T01:59:22;102.20;;;37.53;;
43678;SDS011;29279;50.858;4.392;2022-12-05T02:01:50;103.10;;;37.83;;
43678;SDS011;29279;50.858;4.392;2022-12-05T02:04:16;104.80;;;39.33;;
43678;SDS011;29279;50.858;4.392;2022-12-05T02:06:42;104.78;;;38.40;;
43678;SDS011;29279;50.858;4.392;2022-12-05T02:09:08;94.78;;;37.25;;
43678;SDS011;29279;50.858;4.392;2022-12-05T02:11:33;99.32;;;38.45;;
43678;SDS011;29279;50.858;4.392;2022-12-05T02:14:30;111.47;;;40.78;;
43678;SDS011;29279;50.858;4.392;2022-12-05T02:23:13;112.00;;;38.88;;
43678;SDS011;29279;50.858;4.392;2022-12-05T02:28:38;102.85;;;40.75;;
43678;SDS011;29279;50.858;4.392;2022-12-05T02:31:29;112.45;;;41.60;;
43678;SDS011;29279;50.858;4.392;2022-12-05T02:34:01;109.40;;;40.40;;
43678;SDS011;29279;50.858;4.392;2022-12-05T02:39:23;111.80;;;40.53;;
43678;SDS011;29279;50.858;4.392;2022-12-05T02:44:40;112.45;;;43.60;;
43678;SDS011;29279;50.858;4.392;2022-12-05T02:47:10;128.55;;;41.60;;
43678;SDS011;29279;50.858;4.392;2022-12-05T02:49:40;134.70;;;42.45;;
43678;SDS011;29279;50.858;4.392;2022-12-05T02:52:07;114.57;;;41.58;;
43678;SDS011;29279;50.858;4.392;2022-12-05T02:54:37;136.35;;;44.17;;
43678;SDS011;29279;50.858;4.392;2022-12-05T02:57:06;114.75;;;41.95;;
43678;SDS011;29279;50.858;4.392;2022-12-05T02:59:34;112.15;;;41.78;;
43678;SDS011;29279;50.858;4.392;2022-12-05T03:02:00;144.02;;;42.05;;
43678;SDS011;29279;50.858;4.392;2022-12-05T03:04:26;116.28;;;41.92;;
43678;SDS011;29279;50.858;4.392;2022-12-05T03:12:30;116.30;;;40.90;;
43678;SDS011;29279;50.858;4.392;2022-12-05T03:17:31;119.70;;;40.65;;
43678;SDS011;29279;50.858;4.392;2022-12-05T03:20:05;118.20;;;40.53;;
43678;SDS011;29279;50.858;4.392;2022-12-05T03:22:41;117.35;;;41.85;;
43678;SDS011;29279;50.858;4.392;2022-12-05T03:25:13;114.95;;;40.47;;
43678;SDS011;29279;50.858;4.392;2022-12-05T03:27:46;104.40;;;40.60;;
43678;SDS011;29279;50.858;4.392;2022-12-05T03:30:21;128.27;;;41.78;;
43678;SDS011;29279;50.858;4.392;2022-12-05T03:32:56;98.43;;;40.10;;
43678;SDS011;29279;50.858;4.392;2022-12-05T03:35:34;104.18;;;38.38;;
43678;SDS011;29279;50.858;4.392;2022-12-05T03:38:36;109.85;;;39.28;;
43678;SDS011;29279;50.858;4.392;2022-12-05T03:41:53;117.75;;;40.83;;
43678;SDS011;29279;50.858;4.392;2022-12-05T03:44:32;103.03;;;37.60;;
43678;SDS011;29279;50.858;4.392;2022-12-05T03:47:11;94.72;;;38.60;;
43678;SDS011;29279;50.858;4.392;2022-12-05T03:49:43;94.07;;;37.90;;
43678;SDS011;29279;50.858;4.392;2022-12-05T03:52:13;102.28;;;38.40;;
43678;SDS011;29279;50.858;4.392;2022-12-05T03:54:42;104.85;;;39.08;;
43678;SDS011;29279;50.858;4.392;2022-12-05T03:57:21;116.00;;;40.10;;
43678;SDS011;29279;50.858;4.392;2022-12-05T04:00:17;96.95;;;37.28;;
43678;SDS011;29279;50.858;4.392;2022-12-05T04:02:49;103.50;;;38.15;;
43678;SDS011;29279;50.858;4.392;2022-12-05T04:05:45;91.90;;;36.30;;
43678;SDS011;29279;50.858;4.392;2022-12-05T04:08:20;97.53;;;38.50;;
43678;SDS011;29279;50.858;4.392;2022-12-05T04:10:50;94.95;;;37.58;;
43678;SDS011;29279;50.858;4.392;2022-12-05T04:13:26;106.18;;;39.53;;
43678;SDS011;29279;50.858;4.392;2022-12-05T04:15:57;113.70;;;39.85;;
43678;SDS011;29279;50.858;4.392;2022-12-05T04:18:53;92.20;;;36.58;;
43678;SDS011;29279;50.858;4.392;2022-12-05T04:21:47;101.28;;;37.40;;
43678;SDS011;29279;50.858;4.392;2022-12-05T04:24:26;99.50;;;35.40;;
43678;SDS011;29279;50.858;4.392;2022-12-05T04:32:31;82.60;;;32.72;;
43678;SDS011;29279;50.858;4.392;2022-12-05T04:35:20;86.68;;;33.03;;
43678;SDS011;29279;50.858;4.392;2022-12-05T04:37:57;88.05;;;34.35;;
43678;SDS011;29279;50.858;4.392;2022-12-05T04:40:37;92.53;;;33.60;;
43678;SDS011;29279;50.858;4.392;2022-12-05T04:43:08;87.32;;;34.58;;
43678;SDS011;29279;50.858;4.392;2022-12-05T04:45:35;80.55;;;33.03;;
43678;SDS011;29279;50.858;4.392;2022-12-05T04:48:05;93.68;;;34.65;;
43678;SDS011;29279;50.858;4.392;2022-12-05T04:50:35;75.55;;;32.80;;
43678;SDS011;29279;50.858;4.392;2022-12-05T04:53:04;82.13;;;34.75;;
43678;SDS011;29279;50.858;4.392;2022-12-05T04:55:30;82.43;;;34.22;;
43678;SDS011;29279;50.858;4.392;2022-12-05T05:00:38;73.00;;;31.55;;
43678;SDS011;29279;50.858;4.392;2022-12-05T05:03:11;80.75;;;33.50;;
43678;SDS011;29279;50.858;4.392;2022-12-05T05:05:46;83.50;;;34.53;;
43678;SDS011;29279;50.858;4.392;2022-12-05T05:08:15;83.22;;;34.40;;
43678;SDS011;29279;50.858;4.392;2022-12-05T05:10:51;76.10;;;33.72;;
43678;SDS011;29279;50.858;4.392;2022-12-05T05:13:29;79.20;;;32.70;;
43678;SDS011;29279;50.858;4.392;2022-12-05T05:15:55;93.72;;;35.72;;
43678;SDS011;29279;50.858;4.392;2022-12-05T05:18:20;84.53;;;33.92;;
43678;SDS011;29279;50.858;4.392;2022-12-05T05:20:46;77.85;;;35.50;;
43678;SDS011;29279;50.858;4.392;2022-12-05T05:23:12;79.18;;;34.35;;
43678;SDS011;29279;50.858;4.392;2022-12-05T05:25:38;91.10;;;36.72;;
43678;SDS011;29279;50.858;4.392;2022-12-05T05:28:04;100.00;;;37.75;;
43678;SDS011;29279;50.858;4.392;2022-12-05T05:30:29;88.22;;;36.53;;
43678;SDS011;29279;50.858;4.392;2022-12-05T05:32:55;86.90;;;35.67;;
43678;SDS011;29279;50.858;4.392;2022-12-05T05:35:22;82.72;;;36.53;;
43678;SDS011;29279;50.858;4.392;2022-12-05T05:37:48;99.15;;;37.25;;
43678;SDS011;29279;50.858;4.392;2022-12-05T05:40:14;99.90;;;38.45;;
43678;SDS011;29279;50.858;4.392;2022-12-05T05:42:44;94.13;;;36.83;;
43678;SDS011;29279;50.858;4.392;2022-12-05T05:45:11;105.03;;;38.10;;
43678;SDS011;29279;50.858;4.392;2022-12-05T05:47:38;88.22;;;35.72;;
43678;SDS011;29279;50.858;4.392;2022-12-05T05:50:04;89.05;;;37.60;;
43678;SDS011;29279;50.858;4.392;2022-12-05T05:52:32;89.63;;;36.70;;
43678;SDS011;29279;50.858;4.392;2022-12-05T05:54:58;82.50;;;36.05;;
43678;SDS011;29279;50.858;4.392;2022-12-05T05:57:25;101.57;;;38.40;;
43678;SDS011;29279;50.858;4.392;2022-12-05T05:59:51;100.60;;;37.10;;
43678;SDS011;29279;50.858;4.392;2022-12-05T06:02:16;89.68;;;38.08;;
43678;SDS011;29279;50.858;4.392;2022-12-05T06:04:42;99.55;;;37.42;;
43678;SDS011;29279;50.858;4.392;2022-12-05T06:07:08;89.00;;;37.97;;
43678;SDS011;29279;50.858;4.392;2022-12-05T06:09:33;95.15;;;38.25;;
43678;SDS011;29279;50.858;4.392;2022-12-05T06:11:59;96.15;;;37.72;;
43678;SDS011;29279;50.858;4.392;2022-12-05T06:14:25;96.30;;;37.40;;
43678;SDS011;29279;50.858;4.392;2022-12-05T06:16:50;94.53;;;37.40;;
43678;SDS011;29279;50.858;4.392;2022-12-05T06:19:16;95.95;;;38.00;;
43678;SDS011;29279;50.858;4.392;2022-12-05T06:21:42;91.05;;;36.30;;
43678;SDS011;29279;50.858;4.392;2022-12-05T06:24:07;104.63;;;38.20;;
43678;SDS011;29279;50.858;4.392;2022-12-05T06:26:33;105.90;;;39.63;;
43678;SDS011;29279;50.858;4.392;2022-12-05T06:28:59;90.70;;;37.88;;
43678;SDS011;29279;50.858;4.392;2022-12-05T06:31:25;92.32;;;36.53;;
43678;SDS011;29279;50.858;4.392;2022-12-05T06:33:58;92.90;;;37.45;;
43678;SDS011;29279;50.858;4.392;2022-12-05T06:36:28;91.35;;;39.70;;
43678;SDS011;29279;50.858;4.392;2022-12-05T06:38:58;95.15;;;38.15;;
43678;SDS011;29279;50.858;4.392;2022-12-05T06:41:24;93.60;;;37.15;;
43678;SDS011;29279;50.858;4.392;2022-12-05T06:43:52;99.10;;;37.22;;
43678;SDS011;29279;50.858;4.392;2022-12-05T06:46:19;83.75;;;36.45;;
43678;SDS011;29279;50.858;4.392;2022-12-05T06:48:45;94.50;;;37.05;;
43678;SDS011;29279;50.858;4.392;2022-12-05T06:51:12;93.70;;;37.53;;
43678;SDS011;29279;50.858;4.392;2022-12-05T06:53:39;87.28;;;35.00;;
43678;SDS011;29279;50.858;4.392;2022-12-05T06:56:06;92.18;;;36.38;;
43678;SDS011;29279;50.858;4.392;2022-12-05T06:58:38;85.68;;;36.15;;
43678;SDS011;29279;50.858;4.392;2022-12-05T07:01:04;85.22;;;36.38;;
43678;SDS011;29279;50.858;4.392;2022-12-05T07:03:52;93.57;;;37.58;;
43678;SDS011;29279;50.858;4.392;2022-12-05T07:06:17;82.00;;;35.17;;
43678;SDS011;29279;50.858;4.392;2022-12-05T07:08:43;89.65;;;35.05;;
43678;SDS011;29279;50.858;4.392;2022-12-05T07:11:09;86.57;;;34.33;;
43678;SDS011;29279;50.858;4.392;2022-12-05T07:13:35;77.18;;;33.50;;
43678;SDS011;29279;50.858;4.392;2022-12-05T07:16:01;83.43;;;34.72;;
43678;SDS011;29279;50.858;4.392;2022-12-05T07:18:26;79.47;;;34.00;;
43678;SDS011;29279;50.858;4.392;2022-12-05T07:20:56;76.97;;;34.53;;
43678;SDS011;29279;50.858;4.392;2022-12-05T07:23:23;74.63;;;34.05;;
43678;SDS011;29279;50.858;4.392;2022-12-05T07:25:48;74.38;;;33.28;;
43678;SDS011;29279;50.858;4.392;2022-12-05T07:28:14;80.10;;;35.75;;
43678;SDS011;29279;50.858;4.392;2022-12-05T07:30:40;79.60;;;33.05;;
43678;SDS011;29279;50.858;4.392;2022-12-05T07:33:05;85.50;;;35.25;;
43678;SDS011;29279;50.858;4.392;2022-12-05T07:35:31;84.70;;;35.95;;
43678;SDS011;29279;50.858;4.392;2022-12-05T07:37:57;81.80;;;35.60;;
43678;SDS011;29279;50.858;4.392;2022-12-05T07:40:22;88.55;;;36.85;;
43678;SDS011;29279;50.858;4.392;2022-12-05T07:42:49;89.10;;;35.55;;
43678;SDS011;29279;50.858;4.392;2022-12-05T07:45:14;81.63;;;35.25;;
43678;SDS011;29279;50.858;4.392;2022-12-05T07:47:40;90.50;;;38.28;;
43678;SDS011;29279;50.858;4.392;2022-12-05T07:50:06;84.78;;;35.30;;
43678;SDS011;29279;50.858;4.392;2022-12-05T07:52:32;85.20;;;35.00;;
43678;SDS011;29279;50.858;4.392;2022-12-05T07:54:58;95.60;;;38.58;;
43678;SDS011;29279;50.858;4.392;2022-12-05T07:57:23;85.57;;;36.08;;
43678;SDS011;29279;50.858;4.392;2022-12-05T07:59:49;94.15;;;38.47;;
43678;SDS011;29279;50.858;4.392;2022-12-05T08:02:14;87.53;;;37.60;;
43678;SDS011;29279;50.858;4.392;2022-12-05T08:04:40;94.50;;;37.55;;
43678;SDS011;29279;50.858;4.392;2022-12-05T08:07:08;88.82;;;34.72;;
43678;SDS011;29279;50.858;4.392;2022-12-05T08:09:35;82.00;;;34.70;;
43678;SDS011;29279;50.858;4.392;2022-12-05T08:12:00;85.35;;;35.15;;
43678;SDS011;29279;50.858;4.392;2022-12-05T08:14:26;88.10;;;35.80;;
43678;SDS011;29279;50.858;4.392;2022-12-05T08:16:52;81.35;;;34.85;;
43678;SDS011;29279;50.858;4.392;2022-12-05T08:19:18;87.13;;;36.17;;
43678;SDS011;29279;50.858;4.392;2022-12-05T08:21:43;82.57;;;35.25;;
43678;SDS011;29279;50.858;4.392;2022-12-05T08:24:09;79.40;;;32.63;;
43678;SDS011;29279;50.858;4.392;2022-12-05T08:26:35;86.13;;;35.00;;
43678;SDS011;29279;50.858;4.392;2022-12-05T08:29:06;94.28;;;35.65;;
43678;SDS011;29279;50.858;4.392;2022-12-05T08:31:44;83.20;;;34.25;;
43678;SDS011;29279;50.858;4.392;2022-12-05T08:34:11;73.28;;;33.03;;
43678;SDS011;29279;50.858;4.392;2022-12-05T08:36:38;74.38;;;31.40;;
43678;SDS011;29279;50.858;4.392;2022-12-05T08:39:04;73.43;;;31.73;;
43678;SDS011;29279;50.858;4.392;2022-12-05T08:41:32;75.32;;;31.83;;
43678;SDS011;29279;50.858;4.392;2022-12-05T08:43:59;73.28;;;31.40;;
43678;SDS011;29279;50.858;4.392;2022-12-05T08:46:28;59.13;;;28.80;;
43678;SDS011;29279;50.858;4.392;2022-12-05T08:48:55;63.22;;;28.60;;
43678;SDS011;29279;50.858;4.392;2022-12-05T08:51:20;60.35;;;29.33;;
43678;SDS011;29279;50.858;4.392;2022-12-05T08:53:46;57.70;;;28.05;;
43678;SDS011;29279;50.858;4.392;2022-12-05T08:56:12;60.70;;;28.60;;
43678;SDS011;29279;50.858;4.392;2022-12-05T08:58:37;61.85;;;27.45;;
43678;SDS011;29279;50.858;4.392;2022-12-05T09:01:08;62.47;;;28.85;;
43678;SDS011;29279;50.858;4.392;2022-12-05T09:03:35;67.75;;;29.65;;
43678;SDS011;29279;50.858;4.392;2022-12-05T09:06:12;62.28;;;28.42;;
43678;SDS011;29279;50.858;4.392;2022-12-05T09:08:46;62.08;;;30.10;;
43678;SDS011;29279;50.858;4.392;2022-12-05T09:11:13;53.38;;;26.88;;
43678;SDS011;29279;50.858;4.392;2022-12-05T09:13:40;54.20;;;27.55;;
43678;SDS011;29279;50.858;4.392;2022-12-05T09:16:07;56.88;;;26.98;;
43678;SDS011;29279;50.858;4.392;2022-12-05T09:18:35;57.35;;;25.65;;
43678;SDS011;29279;50.858;4.392;2022-12-05T09:21:21;51.90;;;26.73;;
43678;SDS011;29279;50.858;4.392;2022-12-05T09:23:48;58.75;;;27.35;;
43678;SDS011;29279;50.858;4.392;2022-12-05T09:26:15;51.13;;;27.20;;
43678;SDS011;29279;50.858;4.392;2022-12-05T09:28:43;52.72;;;25.13;;
43678;SDS011;29279;50.858;4.392;2022-12-05T09:31:10;47.55;;;24.27;;
43678;SDS011;29279;50.858;4.392;2022-12-05T09:33:43;44.53;;;24.00;;
43678;SDS011;29279;50.858;4.392;2022-12-05T09:36:13;48.08;;;23.70;;
43678;SDS011;29279;50.858;4.392;2022-12-05T09:38:41;45.30;;;23.60;;
43678;SDS011;29279;50.858;4.392;2022-12-05T09:43:45;44.55;;;23.15;;
43678;SDS011;29279;50.858;4.392;2022-12-05T09:46:34;47.33;;;24.75;;
43678;SDS011;29279;50.858;4.392;2022-12-05T09:49:14;43.05;;;22.90;;
43678;SDS011;29279;50.858;4.392;2022-12-05T09:51:41;38.03;;;20.50;;
43678;SDS011;29279;50.858;4.392;2022-12-05T09:54:11;43.33;;;19.65;;
43678;SDS011;29279;50.858;4.392;2022-12-05T09:56:38;41.28;;;19.45;;
43678;SDS011;29279;50.858;4.392;2022-12-05T09:59:07;60.55;;;21.58;;
43678;SDS011;29279;50.858;4.392;2022-12-05T10:01:39;36.05;;;19.73;;
43678;SDS011;29279;50.858;4.392;2022-12-05T10:07:37;42.10;;;21.17;;
43678;SDS011;29279;50.858;4.392;2022-12-05T10:17:44;36.10;;;19.60;;
43678;SDS011;29279;50.858;4.392;2022-12-05T10:20:35;34.70;;;19.35;;
43678;SDS011;29279;50.858;4.392;2022-12-05T10:26:13;30.88;;;19.02;;
43678;SDS011;29279;50.858;4.392;2022-12-05T10:28:51;42.88;;;20.73;;
43678;SDS011;29279;50.858;4.392;2022-12-05T10:31:24;51.28;;;19.42;;
43678;SDS011;29279;50.858;4.392;2022-12-05T10:33:56;39.67;;;18.35;;
43678;SDS011;29279;50.858;4.392;2022-12-05T10:38:53;32.67;;;17.35;;
43678;SDS011;29279;50.858;4.392;2022-12-05T10:41:20;35.25;;;18.25;;
43678;SDS011;29279;50.858;4.392;2022-12-05T10:43:46;30.45;;;18.35;;
43678;SDS011;29279;50.858;4.392;2022-12-05T10:46:13;30.77;;;17.80;;
43678;SDS011;29279;50.858;4.392;2022-12-05T10:48:41;32.28;;;19.05;;
43678;SDS011;29279;50.858;4.392;2022-12-05T10:51:14;38.88;;;20.20;;
43678;SDS011;29279;50.858;4.392;2022-12-05T10:53:43;32.20;;;18.70;;
43678;SDS011;29279;50.858;4.392;2022-12-05T10:59:16;29.15;;;16.90;;
43678;SDS011;29279;50.858;4.392;2022-12-05T11:01:45;29.85;;;17.77;;
43678;SDS011;29279;50.858;4.392;2022-12-05T11:04:26;30.10;;;16.80;;
43678;SDS011;29279;50.858;4.392;2022-12-05T11:06:57;35.28;;;18.13;;
43678;SDS011;29279;50.858;4.392;2022-12-05T11:09:27;30.42;;;17.95;;
43678;SDS011;29279;50.858;4.392;2022-12-05T11:12:57;27.30;;;15.80;;
43678;SDS011;29279;50.858;4.392;2022-12-05T11:17:23;31.75;;;18.00;;
43678;SDS011;29279;50.858;4.392;2022-12-05T11:19:51;29.63;;;18.30;;
43678;SDS011;29279;50.858;4.392;2022-12-05T11:22:17;26.83;;;17.17;;
43678;SDS011;29279;50.858;4.392;2022-12-05T11:24:42;23.67;;;14.75;;
43678;SDS011;29279;50.858;4.392;2022-12-05T11:29:40;23.00;;;14.45;;
43678;SDS011;29279;50.858;4.392;2022-12-05T11:32:17;24.45;;;15.20;;
43678;SDS011;29279;50.858;4.392;2022-12-05T11:34:49;25.67;;;15.23;;
43678;SDS011;29279;50.858;4.392;2022-12-05T11:37:29;22.60;;;15.10;;
43678;SDS011;29279;50.858;4.392;2022-12-05T11:40:04;23.15;;;14.70;;
43678;SDS011;29279;50.858;4.392;2022-12-05T11:45:29;22.73;;;14.90;;
43678;SDS011;29279;50.858;4.392;2022-12-05T11:48:11;23.83;;;14.15;;
43678;SDS011;29279;50.858;4.392;2022-12-05T11:51:06;26.55;;;14.68;;
43678;SDS011;29279;50.858;4.392;2022-12-05T11:56:57;23.17;;;14.63;;
43678;SDS011;29279;50.858;4.392;2022-12-05T12:08:02;29.35;;;17.45;;
43678;SDS011;29279;50.858;4.392;2022-12-05T12:10:55;29.63;;;16.80;;
43678;SDS011;29279;50.858;4.392;2022-12-05T12:16:16;25.40;;;16.13;;
43678;SDS011;29279;50.858;4.392;2022-12-05T12:22:16;29.85;;;17.70;;
43678;SDS011;29279;50.858;4.392;2022-12-05T12:25:19;29.70;;;17.52;;
43678;SDS011;29279;50.858;4.392;2022-12-05T12:36:37;31.85;;;18.17;;
43678;SDS011;29279;50.858;4.392;2022-12-05T12:41:58;28.88;;;17.23;;
43678;SDS011;29279;50.858;4.392;2022-12-05T12:52:29;29.13;;;18.02;;
43678;SDS011;29279;50.858;4.392;2022-12-05T13:03:16;30.17;;;18.73;;
43678;SDS011;29279;50.858;4.392;2022-12-05T13:05:52;36.00;;;19.98;;
43678;SDS011;29279;50.858;4.392;2022-12-05T13:10:58;39.97;;;20.60;;
43678;SDS011;29279;50.858;4.392;2022-12-05T13:13:32;35.03;;;20.13;;
43678;SDS011;29279;50.858;4.392;2022-12-05T13:16:12;37.67;;;21.88;;
43678;SDS011;29279;50.858;4.392;2022-12-05T13:18:47;28.67;;;18.23;;
43678;SDS011;29279;50.858;4.392;2022-12-05T13:21:13;27.35;;;17.25;;
43678;SDS011;29279;50.858;4.392;2022-12-05T13:23:40;30.30;;;18.63;;
43678;SDS011;29279;50.858;4.392;2022-12-05T13:26:11;28.95;;;18.50;;
43678;SDS011;29279;50.858;4.392;2022-12-05T13:28:39;29.10;;;18.30;;
43678;SDS011;29279;50.858;4.392;2022-12-05T13:31:14;29.50;;;17.70;;
43678;SDS011;29279;50.858;4.392;2022-12-05T13:33:44;28.73;;;18.48;;
43678;SDS011;29279;50.858;4.392;2022-12-05T13:36:15;26.05;;;17.35;;
43678;SDS011;29279;50.858;4.392;2022-12-05T13:39:04;25.65;;;17.27;;
43678;SDS011;29279;50.858;4.392;2022-12-05T13:41:56;27.30;;;17.67;;
43678;SDS011;29279;50.858;4.392;2022-12-05T13:49:50;29.90;;;19.08;;
43678;SDS011;29279;50.858;4.392;2022-12-05T13:52:28;30.92;;;19.17;;
43678;SDS011;29279;50.858;4.392;2022-12-05T13:55:01;31.83;;;19.25;;
43678;SDS011;29279;50.858;4.392;2022-12-05T14:12:46;29.70;;;18.65;;
43678;SDS011;29279;50.858;4.392;2022-12-05T14:17:48;32.50;;;19.80;;
43678;SDS011;29279;50.858;4.392;2022-12-05T14:34:34;30.38;;;18.90;;
43678;SDS011;29279;50.858;4.392;2022-12-05T14:37:03;31.83;;;20.40;;
43678;SDS011;29279;50.858;4.392;2022-12-05T14:39:48;31.98;;;19.35;;
43678;SDS011;29279;50.858;4.392;2022-12-05T14:42:28;31.40;;;18.92;;
43678;SDS011;29279;50.858;4.392;2022-12-05T14:45:00;35.40;;;20.00;;
43678;SDS011;29279;50.858;4.392;2022-12-05T14:47:49;32.30;;;20.38;;
43678;SDS011;29279;50.858;4.392;2022-12-05T15:01:17;29.63;;;18.67;;
43678;SDS011;29279;50.858;4.392;2022-12-05T15:04:02;30.17;;;18.80;;
43678;SDS011;29279;50.858;4.392;2022-12-05T15:06:32;31.83;;;17.95;;
43678;SDS011;29279;50.858;4.392;2022-12-05T15:09:03;40.03;;;19.42;;
43678;SDS011;29279;50.858;4.392;2022-12-05T15:11:32;38.75;;;21.00;;
43678;SDS011;29279;50.858;4.392;2022-12-05T15:16:34;37.35;;;22.05;;
43678;SDS011;29279;50.858;4.392;2022-12-05T15:19:06;39.17;;;22.65;;
43678;SDS011;29279;50.858;4.392;2022-12-05T15:21:44;40.92;;;22.75;;
43678;SDS011;29279;50.858;4.392;2022-12-05T15:24:12;43.53;;;23.73;;
43678;SDS011;29279;50.858;4.392;2022-12-05T15:26:40;45.90;;;24.25;;
43678;SDS011;29279;50.858;4.392;2022-12-05T15:29:16;39.72;;;24.15;;
43678;SDS011;29279;50.858;4.392;2022-12-05T15:36:45;51.33;;;28.52;;
43678;SDS011;29279;50.858;4.392;2022-12-05T15:39:21;65.47;;;32.10;;
43678;SDS011;29279;50.858;4.392;2022-12-05T15:41:50;53.65;;;29.88;;
43678;SDS011;29279;50.858;4.392;2022-12-05T15:44:17;62.25;;;30.67;;
43678;SDS011;29279;50.858;4.392;2022-12-05T15:46:44;62.35;;;30.30;;
43678;SDS011;29279;50.858;4.392;2022-12-05T15:49:25;64.88;;;31.88;;
43678;SDS011;29279;50.858;4.392;2022-12-05T15:51:54;66.53;;;32.95;;
43678;SDS011;29279;50.858;4.392;2022-12-05T15:54:30;73.07;;;35.22;;
43678;SDS011;29279;50.858;4.392;2022-12-05T15:57:09;67.22;;;33.28;;
43678;SDS011;29279;50.858;4.392;2022-12-05T15:59:44;77.85;;;36.13;;
43678;SDS011;29279;50.858;4.392;2022-12-05T16:02:21;74.25;;;34.95;;
43678;SDS011;29279;50.858;4.392;2022-12-05T16:05:01;74.45;;;35.53;;
43678;SDS011;29279;50.858;4.392;2022-12-05T16:07:27;79.25;;;38.78;;
43678;SDS011;29279;50.858;4.392;2022-12-05T16:09:55;80.97;;;38.03;;
43678;SDS011;29279;50.858;4.392;2022-12-05T16:12:30;82.00;;;39.75;;
43678;SDS011;29279;50.858;4.392;2022-12-05T16:15:01;94.22;;;42.80;;
43678;SDS011;29279;50.858;4.392;2022-12-05T16:17:36;62.70;;;30.02;;
43678;SDS011;29279;50.858;4.392;2022-12-05T16:22:43;75.63;;;38.47;;
43678;SDS011;29279;50.858;4.392;2022-12-05T16:25:12;85.95;;;41.00;;
43678;SDS011;29279;50.858;4.392;2022-12-05T16:27:41;88.22;;;39.92;;
43678;SDS011;29279;50.858;4.392;2022-12-05T16:30:21;84.43;;;38.63;;
43678;SDS011;29279;50.858;4.392;2022-12-05T16:32:49;83.28;;;39.65;;
43678;SDS011;29279;50.858;4.392;2022-12-05T16:35:30;77.43;;;39.10;;
43678;SDS011;29279;50.858;4.392;2022-12-05T16:38:12;83.40;;;39.63;;
43678;SDS011;29279;50.858;4.392;2022-12-05T16:43:23;76.72;;;38.80;;
43678;SDS011;29279;50.858;4.392;2022-12-05T16:48:42;82.43;;;39.13;;
43678;SDS011;29279;50.858;4.392;2022-12-05T16:53:46;74.55;;;37.97;;
43678;SDS011;29279;50.858;4.392;2022-12-05T16:59:03;66.18;;;36.33;;
43678;SDS011;29279;50.858;4.392;2022-12-05T17:01:31;70.72;;;37.03;;
43678;SDS011;29279;50.858;4.392;2022-12-05T17:03:57;69.38;;;37.25;;
43678;SDS011;29279;50.858;4.392;2022-12-05T17:06:23;72.60;;;38.60;;
43678;SDS011;29279;50.858;4.392;2022-12-05T17:08:50;76.90;;;39.83;;
43678;SDS011;29279;50.858;4.392;2022-12-05T17:11:27;74.90;;;39.67;;
43678;SDS011;29279;50.858;4.392;2022-12-05T17:13:55;66.85;;;36.15;;
43678;SDS011;29279;50.858;4.392;2022-12-05T17:16:22;73.93;;;38.97;;
43678;SDS011;29279;50.858;4.392;2022-12-05T17:18:48;65.38;;;36.65;;
43678;SDS011;29279;50.858;4.392;2022-12-05T17:21:21;72.43;;;38.28;;
43678;SDS011;29279;50.858;4.392;2022-12-05T17:23:49;67.65;;;37.47;;
43678;SDS011;29279;50.858;4.392;2022-12-05T17:26:17;74.18;;;38.78;;
43678;SDS011;29279;50.858;4.392;2022-12-05T17:28:44;74.15;;;37.95;;
43678;SDS011;29279;50.858;4.392;2022-12-05T17:31:13;70.88;;;38.80;;
43678;SDS011;29279;50.858;4.392;2022-12-05T17:33:44;70.18;;;37.45;;
43678;SDS011;29279;50.858;4.392;2022-12-05T17:36:11;66.70;;;37.08;;
43678;SDS011;29279;50.858;4.392;2022-12-05T17:38:39;67.18;;;36.90;;
43678;SDS011;29279;50.858;4.392;2022-12-05T17:41:05;73.75;;;37.17;;
43678;SDS011;29279;50.858;4.392;2022-12-05T17:43:32;68.97;;;37.95;;